createdAt,value
2023-01-08T00:01:17.568Z,51.05
2023-01-08T00:03:44.858Z,52.33
2023-01-08T00:06:15.323Z,49.28
2023-01-08T00:08:42.834Z,35.78
2023-01-08T00:11:10.489Z,45.55
2023-01-08T00:13:37.753Z,49.15
2023-01-08T00:16:10.142Z,42.25
2023-01-08T00:18:38.596Z,44.63
2023-01-08T00:21:06.114Z,47.58
2023-01-08T00:23:33.933Z,51.97
2023-01-08T00:26:07.470Z,54.22
2023-01-08T00:28:35.643Z,52.53
2023-01-08T00:31:08.360Z,47.08
2023-01-08T00:33:36.337Z,42.90
2023-01-08T00:36:12.345Z,38.17
2023-01-08T00:38:39.454Z,43.85
2023-01-08T00:41:06.850Z,41.90
2023-01-08T00:43:34.055Z,43.50
2023-01-08T00:46:01.107Z,38.35
2023-01-08T00:48:28.247Z,42.28
2023-01-08T00:50:55.647Z,44.17
2023-01-08T00:53:23.152Z,40.25
2023-01-08T00:55:50.151Z,33.05
2023-01-08T00:58:17.709Z,34.70
2023-01-08T01:00:44.788Z,41.15
2023-01-08T01:03:11.807Z,39.85
2023-01-08T01:05:38.950Z,34.55
2023-01-08T01:08:06.008Z,37.95
2023-01-08T01:10:32.997Z,35.35
2023-01-08T01:12:59.993Z,32.47
2023-01-08T01:15:27.185Z,33.75
2023-01-08T01:17:54.317Z,33.55
2023-01-08T01:20:21.747Z,34.20
2023-01-08T01:22:48.791Z,34.28
2023-01-08T01:25:15.904Z,33.65
2023-01-08T01:27:43.091Z,35.55
2023-01-08T01:30:10.903Z,32.33
2023-01-08T01:32:37.902Z,30.90
2023-01-08T01:35:05.362Z,27.05
2023-01-08T01:37:33.125Z,29.45
2023-01-08T01:40:00.198Z,28.77
2023-01-08T01:42:40.339Z,33.67
2023-01-08T01:45:22.470Z,32.58
2023-01-08T01:47:57.859Z,34.20
2023-01-08T01:50:40.019Z,33.25
2023-01-08T01:53:15.002Z,34.90
2023-01-08T01:55:43.936Z,33.38
2023-01-08T01:58:15.463Z,35.55
2023-01-08T02:00:43.406Z,37.75
2023-01-08T02:03:12.704Z,35.92
2023-01-08T02:06:03.046Z,31.05
2023-01-08T02:08:52.627Z,31.15
2023-01-08T02:11:41.018Z,31.35
2023-01-08T02:14:17.597Z,28.38
2023-01-08T02:16:57.471Z,32.47
2023-01-08T02:19:55.985Z,37.03
2023-01-08T02:22:40.321Z,29.77
2023-01-08T02:25:39.854Z,28.90
2023-01-08T02:28:11.329Z,30.38
2023-01-08T02:30:38.508Z,28.13
2023-01-08T02:33:05.525Z,28.75
2023-01-08T02:35:40.815Z,27.55
2023-01-08T02:38:13.391Z,27.67
2023-01-08T02:41:09.421Z,27.15
2023-01-08T02:43:52.643Z,27.83
2023-01-08T02:46:25.892Z,24.50
2023-01-08T02:48:58.304Z,26.75
2023-01-08T02:51:48.350Z,29.45
2023-01-08T02:54:23.381Z,23.77
2023-01-08T02:56:55.453Z,26.98
2023-01-08T02:59:24.435Z,26.63
2023-01-08T03:01:52.498Z,21.35
2023-01-08T03:04:22.883Z,26.33
2023-01-08T03:06:50.744Z,28.40
2023-01-08T03:09:18.456Z,27.83
2023-01-08T03:11:59.019Z,23.02
2023-01-08T03:14:32.776Z,24.40
2023-01-08T03:17:13.284Z,28.70
2023-01-08T03:19:45.347Z,27.13
2023-01-08T03:22:16.087Z,24.58
2023-01-08T03:24:46.284Z,21.02
2023-01-08T03:27:21.909Z,25.10
2023-01-08T03:29:52.482Z,26.98
2023-01-08T03:32:21.371Z,29.50
2023-01-08T03:34:50.775Z,29.88
2023-01-08T03:37:22.013Z,30.25
2023-01-08T03:40:14.776Z,28.88
2023-01-08T03:42:41.913Z,27.67
2023-01-08T03:45:09.420Z,29.70
2023-01-08T03:47:38.515Z,28.38
2023-01-08T03:50:11.197Z,26.40
2023-01-08T03:52:38.257Z,23.63
2023-01-08T03:55:05.547Z,27.13
2023-01-08T03:57:32.490Z,25.55
2023-01-08T03:59:59.539Z,23.42
2023-01-08T04:02:26.621Z,24.58
2023-01-08T04:04:53.732Z,22.95
2023-01-08T04:07:20.892Z,21.42
2023-01-08T04:09:48.028Z,24.42
2023-01-08T04:12:15.080Z,20.95
2023-01-08T04:14:42.067Z,23.20
2023-01-08T04:17:12.609Z,20.70
2023-01-08T04:19:39.598Z,20.48
2023-01-08T04:22:06.747Z,23.23
2023-01-08T04:24:33.744Z,18.65
2023-01-08T04:27:00.850Z,18.45
2023-01-08T04:29:27.887Z,21.23
2023-01-08T04:31:54.831Z,22.35
2023-01-08T04:34:21.824Z,20.92
2023-01-08T04:36:48.819Z,18.10
2023-01-08T04:39:16.898Z,20.33
2023-01-08T04:41:43.948Z,20.48
2023-01-08T04:44:11.032Z,21.75
2023-01-08T04:46:38.197Z,21.70
2023-01-08T04:49:05.230Z,19.38
2023-01-08T04:51:32.274Z,25.05
2023-01-08T04:53:59.273Z,29.10
2023-01-08T04:56:26.333Z,26.33
2023-01-08T04:58:53.472Z,20.65
2023-01-08T05:01:23.372Z,25.13
2023-01-08T05:03:55.139Z,28.83
2023-01-08T05:06:22.387Z,22.88
2023-01-08T05:08:49.593Z,25.67
2023-01-08T05:11:16.922Z,22.60
2023-01-08T05:13:44.044Z,23.15
2023-01-08T05:16:11.126Z,20.15
2023-01-08T05:18:38.344Z,20.42
2023-01-08T05:21:05.850Z,20.13
2023-01-08T05:23:33.720Z,21.17
2023-01-08T05:26:02.550Z,23.17
2023-01-08T05:28:30.683Z,21.05
2023-01-08T05:30:58.209Z,23.58
2023-01-08T05:33:26.097Z,23.33
2023-01-08T05:35:53.300Z,22.17
2023-01-08T05:38:20.347Z,23.05
2023-01-08T05:40:47.391Z,22.33
2023-01-08T05:43:14.439Z,24.52
2023-01-08T05:45:41.383Z,20.10
2023-01-08T05:48:08.894Z,22.38
2023-01-08T05:50:36.294Z,23.42
2023-01-08T05:53:07.894Z,24.25
2023-01-08T05:55:35.670Z,22.48
2023-01-08T05:58:06.122Z,30.67
2023-01-08T06:00:34.483Z,26.17
2023-01-08T06:03:01.604Z,27.10
2023-01-08T06:05:28.924Z,24.42
2023-01-08T06:07:55.967Z,22.38
2023-01-08T06:10:23.067Z,19.75
2023-01-08T06:12:50.209Z,24.08
2023-01-08T06:15:17.313Z,23.60
2023-01-08T06:17:44.662Z,24.83
2023-01-08T06:20:12.328Z,24.38
2023-01-08T06:22:39.270Z,22.65
2023-01-08T06:25:06.773Z,43.35
2023-01-08T06:27:33.821Z,24.75
2023-01-08T06:30:00.819Z,20.50
2023-01-08T06:32:27.862Z,44.05
2023-01-08T06:34:54.912Z,57.10
2023-01-08T06:37:22.041Z,29.83
2023-01-08T06:39:49.007Z,24.45
2023-01-08T06:42:16.053Z,25.25
2023-01-08T06:44:43.095Z,18.00
2023-01-08T06:47:10.199Z,21.48
2023-01-08T06:49:37.293Z,21.55
2023-01-08T06:52:04.406Z,20.15
2023-01-08T06:54:31.490Z,18.17
2023-01-08T06:56:58.519Z,17.00
2023-01-08T06:59:25.586Z,20.88
2023-01-08T07:01:52.876Z,20.00
2023-01-08T07:04:20.402Z,20.67
2023-01-08T07:06:47.904Z,20.25
2023-01-08T07:09:15.765Z,22.83
2023-01-08T07:11:43.015Z,28.10
2023-01-08T07:14:10.124Z,21.35
2023-01-08T07:16:37.211Z,27.00
2023-01-08T07:19:04.504Z,25.15
2023-01-08T07:21:31.784Z,20.88
2023-01-08T07:23:59.804Z,20.80
2023-01-08T07:26:27.860Z,24.10
2023-01-08T07:28:54.901Z,22.20
2023-01-08T07:31:22.172Z,23.70
2023-01-08T07:33:49.252Z,27.60
2023-01-08T07:36:16.602Z,31.85
2023-01-08T07:38:43.807Z,26.73
2023-01-08T07:41:10.802Z,22.52
2023-01-08T07:43:37.799Z,20.45
2023-01-08T07:46:05.349Z,17.85
2023-01-08T07:48:32.460Z,16.88
2023-01-08T07:51:07.261Z,19.10
2023-01-08T07:53:35.198Z,22.80
2023-01-08T07:56:07.995Z,23.27
2023-01-08T07:58:35.376Z,22.92
2023-01-08T08:01:04.587Z,22.52
2023-01-08T08:03:31.956Z,23.08
2023-01-08T08:06:04.514Z,19.20
2023-01-08T08:08:31.509Z,26.70
2023-01-08T08:10:58.558Z,30.45
2023-01-08T08:13:25.913Z,40.08
2023-01-08T08:15:53.140Z,28.05
2023-01-08T08:18:20.615Z,31.63
2023-01-08T08:20:47.773Z,25.02
2023-01-08T08:23:15.457Z,20.45
2023-01-08T08:25:43.191Z,24.38
2023-01-08T08:28:11.733Z,22.20
2023-01-08T08:30:42.374Z,20.88
2023-01-08T08:33:10.120Z,19.95
2023-01-08T08:35:37.436Z,23.70
2023-01-08T08:38:05.076Z,24.88
2023-01-08T08:40:32.076Z,23.83
2023-01-08T08:43:00.775Z,21.83
2023-01-08T08:45:28.881Z,20.73
2023-01-08T08:47:56.234Z,22.85
2023-01-08T08:50:23.508Z,24.85
2023-01-08T08:52:50.468Z,26.27
2023-01-08T08:55:17.942Z,27.30
2023-01-08T08:57:47.146Z,26.20
2023-01-08T09:00:14.978Z,36.55
2023-01-08T09:02:42.400Z,33.90
2023-01-08T09:05:09.668Z,28.77
2023-01-08T09:07:36.805Z,27.52
2023-01-08T09:10:04.773Z,25.83
2023-01-08T09:12:31.892Z,24.30
2023-01-08T09:14:58.930Z,26.25
2023-01-08T09:17:26.161Z,28.33
2023-01-08T09:19:53.432Z,24.95
2023-01-08T09:22:20.690Z,24.00
2023-01-08T09:24:47.779Z,22.60
2023-01-08T09:27:15.226Z,27.42
2023-01-08T09:29:42.482Z,20.23
2023-01-08T09:32:10.099Z,8.32
2023-01-08T09:34:37.101Z,20.42
2023-01-08T09:37:05.935Z,45.45
2023-01-08T09:39:33.480Z,33.75
2023-01-08T09:42:05.823Z,31.15
2023-01-08T09:44:38.949Z,38.67
2023-01-08T09:47:20.476Z,37.20
2023-01-08T09:49:49.824Z,25.50
2023-01-08T09:52:17.180Z,25.85
2023-01-08T09:54:44.544Z,30.38
2023-01-08T09:57:17.932Z,36.58
2023-01-08T09:59:48.098Z,33.17
2023-01-08T10:02:18.705Z,27.95
2023-01-08T10:04:47.166Z,26.95
2023-01-08T10:07:24.784Z,25.05
2023-01-08T10:09:53.234Z,24.15
2023-01-08T10:12:32.008Z,23.42
2023-01-08T10:15:08.468Z,27.13
2023-01-08T10:17:39.721Z,30.52
2023-01-08T10:20:16.131Z,23.73
2023-01-08T10:22:44.253Z,30.50
2023-01-08T10:25:20.367Z,30.65
2023-01-08T10:27:51.473Z,29.20
2023-01-08T10:30:31.062Z,28.40
2023-01-08T10:33:03.727Z,30.88
2023-01-08T10:35:40.135Z,38.60
2023-01-08T10:38:07.498Z,40.00
2023-01-08T10:40:38.535Z,39.15
2023-01-08T10:43:09.474Z,32.17
2023-01-08T10:45:36.621Z,34.88
2023-01-08T10:48:07.213Z,31.48
2023-01-08T10:50:34.994Z,29.88
2023-01-08T10:53:04.982Z,30.90
2023-01-08T10:55:39.287Z,39.55
2023-01-08T10:58:09.419Z,32.42
2023-01-08T11:00:37.748Z,39.10
2023-01-08T11:03:08.735Z,32.25
2023-01-08T11:05:36.914Z,35.40
2023-01-08T11:08:08.303Z,34.88
2023-01-08T11:10:37.499Z,37.35
2023-01-08T11:13:07.521Z,37.65
2023-01-08T11:15:44.199Z,35.10
2023-01-08T11:18:26.052Z,40.88
